createdAt,value
2018-11-07T00:00:35.873Z,8.31
2018-11-07T00:03:04.056Z,8.36
2018-11-07T00:05:32.219Z,8.33
2018-11-07T00:08:00.389Z,8.16
2018-11-07T00:10:28.516Z,8.11
2018-11-07T00:12:56.670Z,8.17
2018-11-07T00:15:24.825Z,8.26
2018-11-07T00:17:52.980Z,8.32
2018-11-07T00:20:21.266Z,8.26
2018-11-07T00:22:49.402Z,8.24
2018-11-07T00:25:17.580Z,8.15
2018-11-07T00:27:45.762Z,8.00
2018-11-07T00:30:13.980Z,7.90
2018-11-07T00:32:42.078Z,7.83
2018-11-07T00:35:11.175Z,7.83
2018-11-07T00:37:39.473Z,7.82
2018-11-07T00:40:07.605Z,7.84
2018-11-07T00:42:35.745Z,7.91
2018-11-07T00:45:03.865Z,7.93
2018-11-07T00:47:32.057Z,7.77
2018-11-07T00:50:00.191Z,7.69
2018-11-07T00:52:28.401Z,7.68
2018-11-07T00:54:56.565Z,7.68
2018-11-07T00:57:24.778Z,7.68
2018-11-07T00:59:52.966Z,7.66
2018-11-07T01:02:21.142Z,7.77
2018-11-07T01:04:49.315Z,7.73
2018-11-07T01:07:17.489Z,7.60
2018-11-07T01:09:45.637Z,7.43
2018-11-07T01:12:13.782Z,7.21
2018-11-07T01:14:41.938Z,7.20
2018-11-07T01:17:10.109Z,7.31
2018-11-07T01:19:38.306Z,7.44
2018-11-07T01:22:06.705Z,7.46
2018-11-07T01:24:34.825Z,7.51
2018-11-07T01:27:02.965Z,7.46
2018-11-07T01:29:31.131Z,7.46
2018-11-07T01:31:59.309Z,7.44
2018-11-07T01:34:27.453Z,7.32
2018-11-07T01:36:55.597Z,7.34
2018-11-07T01:39:23.765Z,7.38
2018-11-07T01:41:51.984Z,7.66
2018-11-07T01:44:20.084Z,7.72
2018-11-07T01:46:48.250Z,7.79
2018-11-07T01:49:16.425Z,7.81
2018-11-07T01:51:44.592Z,7.98
2018-11-07T01:54:12.725Z,8.08
2018-11-07T01:56:40.874Z,8.30
2018-11-07T01:59:09.057Z,8.58
2018-11-07T02:01:37.231Z,8.74
2018-11-07T02:04:05.384Z,8.81
2018-11-07T02:06:33.611Z,8.84
2018-11-07T02:09:01.758Z,8.90
2018-11-07T02:11:29.881Z,8.68
2018-11-07T02:13:58.025Z,8.61
2018-11-07T02:16:26.179Z,8.50
2018-11-07T02:18:54.373Z,8.29
2018-11-07T02:21:22.500Z,8.26
2018-11-07T02:23:50.645Z,8.18
2018-11-07T02:26:18.891Z,8.04
2018-11-07T02:28:46.964Z,7.95
2018-11-07T02:31:15.106Z,7.83
2018-11-07T02:33:43.257Z,7.83
2018-11-07T02:36:11.405Z,7.77
2018-11-07T02:38:39.568Z,7.74
2018-11-07T02:41:07.697Z,7.76
2018-11-07T02:43:35.869Z,7.62
2018-11-07T02:46:04.003Z,7.77
2018-11-07T02:48:32.137Z,7.91
2018-11-07T02:51:00.273Z,7.81
2018-11-07T02:53:28.551Z,7.79
2018-11-07T02:55:56.630Z,7.95
2018-11-07T02:58:24.762Z,8.35
2018-11-07T03:00:52.928Z,8.39
2018-11-07T03:03:21.085Z,8.51
2018-11-07T03:05:49.231Z,8.62
2018-11-07T03:08:17.390Z,8.71
2018-11-07T03:10:45.574Z,8.74
2018-11-07T03:13:13.648Z,8.75
2018-11-07T03:15:41.769Z,8.77
2018-11-07T03:18:09.900Z,8.69
2018-11-07T03:20:38.044Z,8.81
2018-11-07T03:23:06.217Z,8.77
2018-11-07T03:25:34.366Z,8.60
2018-11-07T03:28:02.512Z,8.53
2018-11-07T03:30:30.655Z,8.53
2018-11-07T03:32:58.785Z,8.71
2018-11-07T03:35:28.465Z,8.78
2018-11-07T03:37:57.290Z,8.65
2018-11-07T03:40:26.060Z,8.61
2018-11-07T03:42:54.177Z,8.65
2018-11-07T03:45:27.657Z,8.64
2018-11-07T03:47:55.803Z,8.60
2018-11-07T03:50:23.957Z,8.63
2018-11-07T03:52:52.089Z,8.63
2018-11-07T03:55:20.323Z,8.66
2018-11-07T03:57:48.526Z,8.70
2018-11-07T04:00:16.729Z,8.74
2018-11-07T04:02:44.872Z,8.68
2018-11-07T04:05:13.017Z,8.70
2018-11-07T04:07:42.234Z,8.64
2018-11-07T04:10:10.454Z,8.64
2018-11-07T04:12:38.593Z,8.60
2018-11-07T04:15:07.274Z,8.60
2018-11-07T04:17:35.393Z,8.55
2018-11-07T04:20:03.652Z,8.61
2018-11-07T04:22:31.894Z,8.55
2018-11-07T04:25:00.057Z,8.57
2018-11-07T04:27:28.316Z,8.47
2018-11-07T04:29:56.456Z,8.44
2018-11-07T04:32:24.636Z,8.51
2018-11-07T04:34:52.779Z,8.52
2018-11-07T04:37:20.958Z,8.41
2018-11-07T04:39:49.120Z,8.37
2018-11-07T04:42:17.293Z,8.45
2018-11-07T04:44:45.443Z,8.42
2018-11-07T04:47:13.594Z,8.41
2018-11-07T04:49:42.024Z,8.41
2018-11-07T04:52:10.165Z,8.36
2018-11-07T04:54:38.313Z,8.26
2018-11-07T04:57:06.769Z,8.35
2018-11-07T04:59:35.026Z,8.36
2018-11-07T05:02:03.210Z,8.43
2018-11-07T05:04:31.434Z,8.37
2018-11-07T05:06:59.624Z,8.40
2018-11-07T05:09:27.771Z,8.33
2018-11-07T05:11:56.014Z,8.42
2018-11-07T05:14:24.209Z,8.40
2018-11-07T05:16:52.332Z,8.36
2018-11-07T05:19:20.465Z,8.24
2018-11-07T05:21:48.593Z,8.26
2018-11-07T05:24:16.734Z,8.32
2018-11-07T05:26:44.925Z,8.33
2018-11-07T05:29:13.104Z,8.33
2018-11-07T05:31:41.294Z,8.28
2018-11-07T05:34:09.358Z,8.27
2018-11-07T05:36:37.525Z,8.26
2018-11-07T05:39:07.234Z,8.23
2018-11-07T05:41:35.437Z,8.33
2018-11-07T05:44:03.661Z,8.11
2018-11-07T05:46:37.416Z,8.25
2018-11-07T05:49:05.637Z,8.23
2018-11-07T05:51:33.685Z,8.20
2018-11-07T05:54:01.824Z,8.29
2018-11-07T05:56:29.942Z,8.25
2018-11-07T05:58:58.177Z,8.31
2018-11-07T06:01:26.288Z,8.22
2018-11-07T06:03:54.489Z,8.03
2018-11-07T06:06:22.626Z,8.04
2018-11-07T06:08:50.805Z,8.12
2018-11-07T06:11:18.905Z,8.10
2018-11-07T06:13:47.047Z,8.09
2018-11-07T06:16:15.185Z,7.92
2018-11-07T06:18:43.673Z,8.03
2018-11-07T06:21:11.795Z,8.09
2018-11-07T06:23:39.937Z,8.03
2018-11-07T06:26:08.097Z,8.07
2018-11-07T06:28:36.239Z,8.03
2018-11-07T06:31:04.497Z,8.07
2018-11-07T06:33:32.653Z,8.07
2018-11-07T06:36:00.886Z,8.02
2018-11-07T06:38:29.004Z,8.02
2018-11-07T06:40:57.128Z,7.99
2018-11-07T06:43:25.249Z,8.04
2018-11-07T06:45:53.417Z,8.05
2018-11-07T06:48:21.541Z,8.01
2018-11-07T06:50:49.709Z,8.00
2018-11-07T06:53:17.913Z,8.03
2018-11-07T06:55:46.203Z,8.12
2018-11-07T06:58:14.284Z,7.98
2018-11-07T07:00:42.483Z,8.00
2018-11-07T07:03:10.637Z,8.02
2018-11-07T07:05:38.874Z,7.97
2018-11-07T07:08:07.951Z,8.01
2018-11-07T07:10:36.102Z,7.97
2018-11-07T07:13:04.463Z,7.99
2018-11-07T07:15:32.653Z,7.94
2018-11-07T07:18:00.872Z,7.92
2018-11-07T07:20:28.958Z,7.91
2018-11-07T07:22:57.125Z,7.94
2018-11-07T07:25:25.331Z,7.90
2018-11-07T07:27:53.441Z,7.84
2018-11-07T07:30:22.262Z,7.78
2018-11-07T07:32:50.842Z,7.83
2018-11-07T07:35:19.098Z,7.73
2018-11-07T07:37:47.255Z,7.87
2018-11-07T07:40:16.270Z,7.95
2018-11-07T07:42:45.195Z,7.88
2018-11-07T07:45:15.305Z,7.84
2018-11-07T07:47:44.107Z,7.81
2018-11-07T07:50:13.394Z,7.87
2018-11-07T07:52:42.187Z,7.95
2018-11-07T07:55:10.574Z,7.94
2018-11-07T07:57:39.471Z,7.96
2018-11-07T08:00:15.340Z,7.98
2018-11-07T08:02:46.190Z,7.90
2018-11-07T08:05:14.328Z,8.04
2018-11-07T08:07:42.709Z,8.11
2018-11-07T08:10:17.268Z,8.03
2018-11-07T08:12:45.973Z,8.06
2018-11-07T08:15:14.687Z,8.09
2018-11-07T08:17:43.551Z,8.08
2018-11-07T08:20:12.734Z,8.08
2018-11-07T08:22:41.134Z,8.11
2018-11-07T08:25:09.274Z,8.15
2018-11-07T08:27:37.391Z,8.15
2018-11-07T08:30:08.165Z,8.18
2018-11-07T08:32:36.274Z,8.04
2018-11-07T08:35:04.673Z,7.95
2018-11-07T08:37:32.848Z,8.04
2018-11-07T08:40:00.989Z,8.18
2018-11-07T08:42:29.289Z,8.26
2018-11-07T08:44:57.313Z,8.23
2018-11-07T08:47:25.487Z,8.34
2018-11-07T08:49:53.645Z,8.31
2018-11-07T08:52:21.801Z,8.43
2018-11-07T08:54:49.956Z,8.16
2018-11-07T08:57:18.050Z,8.26
2018-11-07T08:59:46.202Z,8.42
2018-11-07T09:02:14.386Z,8.58
2018-11-07T09:04:42.518Z,8.68
2018-11-07T09:07:10.680Z,8.80
2018-11-07T09:09:38.853Z,8.87
2018-11-07T09:12:07.170Z,8.89
2018-11-07T09:14:35.302Z,8.84
2018-11-07T09:17:03.487Z,8.49
2018-11-07T09:19:31.649Z,8.73
2018-11-07T09:21:59.781Z,8.70
2018-11-07T09:24:27.988Z,8.80
2018-11-07T09:26:56.090Z,8.94
2018-11-07T09:29:24.358Z,9.03
2018-11-07T09:31:52.433Z,9.19
2018-11-07T09:34:20.776Z,9.20
2018-11-07T09:36:48.909Z,9.39
2018-11-07T09:39:17.053Z,9.34
2018-11-07T09:41:45.226Z,9.48
2018-11-07T09:44:13.374Z,9.61
2018-11-07T09:46:41.584Z,9.73
2018-11-07T09:49:09.717Z,9.90
2018-11-07T09:51:37.875Z,10.06
2018-11-07T09:54:06.064Z,10.20
2018-11-07T09:56:34.175Z,10.34
2018-11-07T09:59:02.351Z,10.53
2018-11-07T10:01:30.501Z,10.59
2018-11-07T10:03:58.706Z,10.72
2018-11-07T10:06:26.862Z,10.98
2018-11-07T10:08:55.031Z,11.00
2018-11-07T10:11:23.162Z,11.06
2018-11-07T10:13:51.344Z,11.14
2018-11-07T10:16:19.465Z,11.28
2018-11-07T10:18:47.622Z,11.46
2018-11-07T10:21:15.783Z,11.41
2018-11-07T10:23:43.951Z,11.52
2018-11-07T10:26:12.114Z,11.60
2018-11-07T10:28:40.379Z,11.66
2018-11-07T10:31:08.456Z,11.63
2018-11-07T10:33:36.615Z,11.66
2018-11-07T10:36:04.752Z,11.78
2018-11-07T10:38:32.977Z,12.00
2018-11-07T10:41:01.049Z,12.10
2018-11-07T10:43:29.217Z,12.17
2018-11-07T10:45:57.392Z,12.31
2018-11-07T10:48:25.521Z,12.32
2018-11-07T10:50:53.645Z,12.37
2018-11-07T10:53:21.806Z,12.51
2018-11-07T10:55:49.949Z,12.65
2018-11-07T10:58:18.108Z,12.81
2018-11-07T11:00:51.563Z,12.85
2018-11-07T11:03:24.993Z,12.95
2018-11-07T11:05:53.175Z,12.97
2018-11-07T11:08:21.354Z,13.14
2018-11-07T11:10:49.479Z,12.96
2018-11-07T11:13:17.630Z,12.97
2018-11-07T11:15:45.805Z,12.97
2018-11-07T11:18:13.938Z,13.04
2018-11-07T11:20:42.103Z,13.25
2018-11-07T11:23:10.237Z,13.45
2018-11-07T11:25:38.483Z,13.43
2018-11-07T11:28:06.625Z,13.43
2018-11-07T11:30:34.746Z,13.51
2018-11-07T11:33:02.924Z,13.38
2018-11-07T11:35:31.066Z,13.47
2018-11-07T11:37:59.232Z,13.43
2018-11-07T11:40:27.351Z,13.59
2018-11-07T11:42:55.499Z,13.49
2018-11-07T11:45:23.657Z,13.67
2018-11-07T11:47:51.783Z,13.63
2018-11-07T11:50:20.877Z,13.83
2018-11-07T11:52:49.577Z,13.89
2018-11-07T11:55:17.761Z,13.84
2018-11-07T11:57:46.458Z,13.93
2018-11-07T12:00:16.290Z,14.00
2018-11-07T12:02:44.955Z,14.03
2018-11-07T12:05:14.048Z,14.10
2018-11-07T12:07:42.425Z,14.17
2018-11-07T12:10:17.153Z,14.18
2018-11-07T12:12:49.314Z,14.26
2018-11-07T12:15:18.614Z,14.34
2018-11-07T12:17:46.756Z,14.34
2018-11-07T12:20:14.837Z,14.33
2018-11-07T12:22:43.028Z,14.33
2018-11-07T12:25:12.377Z,14.33
2018-11-07T12:27:40.967Z,14.29
2018-11-07T12:30:10.978Z,14.38
2018-11-07T12:32:39.116Z,14.27
2018-11-07T12:35:07.314Z,14.53
2018-11-07T12:37:35.458Z,14.61
2018-11-07T12:40:03.594Z,14.82
2018-11-07T12:42:31.709Z,14.64
2018-11-07T12:44:59.938Z,14.80
2018-11-07T12:47:28.058Z,14.73
2018-11-07T12:49:56.265Z,14.66
2018-11-07T12:52:24.311Z,14.78
2018-11-07T12:54:52.444Z,14.96
2018-11-07T12:57:20.729Z,14.85
2018-11-07T12:59:48.758Z,14.69
2018-11-07T13:02:16.917Z,14.63
2018-11-07T13:04:45.199Z,14.65
2018-11-07T13:07:13.242Z,14.77
2018-11-07T13:09:42.369Z,14.68
2018-11-07T13:12:10.540Z,14.65
2018-11-07T13:14:38.669Z,14.64
2018-11-07T13:17:06.826Z,14.74
2018-11-07T13:19:34.973Z,14.59
2018-11-07T13:22:03.121Z,14.58
2018-11-07T13:24:31.347Z,14.53
2018-11-07T13:26:59.516Z,14.45
2018-11-07T13:29:27.649Z,14.65
2018-11-07T13:31:55.797Z,14.65
2018-11-07T13:34:24.011Z,14.58
2018-11-07T13:36:52.181Z,14.53
2018-11-07T13:39:20.642Z,14.59
2018-11-07T13:41:48.389Z,14.73
2018-11-07T13:44:16.577Z,14.69
2018-11-07T13:46:44.730Z,14.71
2018-11-07T13:49:12.901Z,14.80
2018-11-07T13:51:41.035Z,14.83
2018-11-07T13:54:09.163Z,14.86
2018-11-07T13:56:37.311Z,14.63
2018-11-07T13:59:05.881Z,14.78
2018-11-07T14:01:34.027Z,14.86
2018-11-07T14:04:02.313Z,14.86
2018-11-07T14:06:30.470Z,14.69
2018-11-07T14:08:58.625Z,14.75
2018-11-07T14:11:26.802Z,14.78
2018-11-07T14:13:54.944Z,14.76
2018-11-07T14:16:23.152Z,14.58
2018-11-07T14:18:51.166Z,14.66
2018-11-07T14:21:19.310Z,14.65
2018-11-07T14:23:47.435Z,14.53
2018-11-07T14:26:15.584Z,14.59
2018-11-07T14:28:43.732Z,14.63
2018-11-07T14:31:11.852Z,14.67
2018-11-07T14:33:40.055Z,14.56
2018-11-07T14:36:08.174Z,14.36
2018-11-07T14:38:36.365Z,14.31
2018-11-07T14:41:04.438Z,14.31
2018-11-07T14:43:32.595Z,14.17
2018-11-07T14:46:00.779Z,14.20
2018-11-07T14:48:28.862Z,14.22
2018-11-07T14:50:57.018Z,14.14
2018-11-07T14:53:25.226Z,14.14
2018-11-07T14:55:53.325Z,14.10
2018-11-07T14:58:21.582Z,13.97
2018-11-07T15:00:49.737Z,13.91
2018-11-07T15:03:17.872Z,13.78
2018-11-07T15:05:46.189Z,13.72
2018-11-07T15:08:14.258Z,13.72
2018-11-07T15:10:42.309Z,13.63
2018-11-07T15:13:10.431Z,13.67
2018-11-07T15:15:38.553Z,13.57
2018-11-07T15:18:06.652Z,13.43
2018-11-07T15:20:34.802Z,13.36
2018-11-07T15:23:02.930Z,13.30
2018-11-07T15:25:31.092Z,13.25
2018-11-07T15:27:59.257Z,13.18
2018-11-07T15:30:27.410Z,13.13
2018-11-07T15:32:55.586Z,13.04
2018-11-07T15:35:23.740Z,12.84
2018-11-07T15:37:51.910Z,12.76
2018-11-07T15:40:20.037Z,12.68
2018-11-07T15:42:48.159Z,12.62
2018-11-07T15:45:17.562Z,12.59
2018-11-07T15:47:45.949Z,12.47
2018-11-07T15:50:19.395Z,12.27
2018-11-07T15:52:48.132Z,12.18
2018-11-07T15:55:16.227Z,12.13
2018-11-07T15:57:44.487Z,12.09
2018-11-07T16:00:14.430Z,11.93
2018-11-07T16:02:42.965Z,11.76
2018-11-07T16:05:12.664Z,11.90
2018-11-07T16:07:40.905Z,11.86
2018-11-07T16:10:10.464Z,11.84
2018-11-07T16:12:39.001Z,11.68
2018-11-07T16:15:08.506Z,11.87
2018-11-07T16:17:36.614Z,11.94
2018-11-07T16:20:06.006Z,11.93
2018-11-07T16:22:34.173Z,11.73
2018-11-07T16:25:02.317Z,11.74
2018-11-07T16:27:30.506Z,11.68
2018-11-07T16:29:58.669Z,11.72
2018-11-07T16:32:26.821Z,11.64
2018-11-07T16:34:54.980Z,11.63
2018-11-07T16:37:23.106Z,11.63
2018-11-07T16:39:51.248Z,11.68
2018-11-07T16:42:19.390Z,11.83
2018-11-07T16:44:47.529Z,11.84
2018-11-07T16:47:15.706Z,11.88
2018-11-07T16:49:43.837Z,11.98
2018-11-07T16:52:11.972Z,11.91
2018-11-07T16:54:40.089Z,11.90
2018-11-07T16:57:08.205Z,11.95
2018-11-07T16:59:36.361Z,11.92
2018-11-07T17:02:04.622Z,11.88
2018-11-07T17:04:32.920Z,11.93
2018-11-07T17:07:01.132Z,11.86
2018-11-07T17:09:29.286Z,11.85
2018-11-07T17:11:57.418Z,11.89
2018-11-07T17:14:25.548Z,11.88
2018-11-07T17:16:53.699Z,11.81
2018-11-07T17:19:21.802Z,11.76
2018-11-07T17:21:49.963Z,11.80
2018-11-07T17:24:18.217Z,11.71
2018-11-07T17:26:46.337Z,11.63
2018-11-07T17:29:14.466Z,11.58
2018-11-07T17:31:42.742Z,11.63
2018-11-07T17:34:16.395Z,11.63
2018-11-07T17:36:44.545Z,11.66
2018-11-07T17:39:12.697Z,11.60
2018-11-07T17:45:02.507Z,11.43
2018-11-07T17:47:30.649Z,11.55
2018-11-07T17:49:58.765Z,11.59
2018-11-07T17:52:26.885Z,11.54
2018-11-07T17:54:54.991Z,11.39
2018-11-07T17:57:23.112Z,11.39
2018-11-07T17:59:51.226Z,11.41
2018-11-07T18:02:19.324Z,11.34
2018-11-07T18:04:47.431Z,11.32
2018-11-07T18:07:15.626Z,11.31
2018-11-07T18:09:43.845Z,11.30
2018-11-07T18:12:11.932Z,11.25
2018-11-07T18:14:40.075Z,11.28
2018-11-07T18:17:08.210Z,11.36
2018-11-07T18:19:36.388Z,11.45
2018-11-07T18:22:04.627Z,11.39
2018-11-07T18:24:32.784Z,11.26
2018-11-07T18:27:00.940Z,10.97
2018-11-07T18:29:29.155Z,10.96
2018-11-07T18:31:57.316Z,10.97
2018-11-07T18:34:25.451Z,10.90
2018-11-07T18:36:53.621Z,10.79
2018-11-07T18:39:21.773Z,10.71
2018-11-07T18:41:50.684Z,10.68
2018-11-07T18:44:18.915Z,10.69
2018-11-07T18:46:47.107Z,10.65
2018-11-07T18:49:15.180Z,10.51
2018-11-07T18:51:43.286Z,10.58
2018-11-07T18:54:11.405Z,10.70
2018-11-07T18:56:39.764Z,10.75
2018-11-07T18:59:07.937Z,10.66
2018-11-07T19:01:36.036Z,10.70
2018-11-07T19:04:04.189Z,10.67
2018-11-07T19:06:32.396Z,10.61
2018-11-07T19:09:00.473Z,10.62
2018-11-07T19:11:28.660Z,10.77
2018-11-07T19:13:56.804Z,10.87
2018-11-07T19:16:24.891Z,10.82
2018-11-07T19:18:53.030Z,10.75
2018-11-07T19:21:21.244Z,10.78
2018-11-07T19:23:49.384Z,10.94
2018-11-07T19:26:17.516Z,10.98
2018-11-07T19:28:45.654Z,10.91
2018-11-07T19:31:13.769Z,10.86
2018-11-07T19:38:42.251Z,10.81
2018-11-07T19:41:10.430Z,10.73
2018-11-07T19:43:38.528Z,10.80
2018-11-07T19:46:06.652Z,10.68
2018-11-07T19:48:34.820Z,10.74
2018-11-07T19:51:02.961Z,10.76
2018-11-07T19:53:31.097Z,10.83
2018-11-07T19:55:59.203Z,10.80
2018-11-07T19:58:27.335Z,10.67
2018-11-07T20:00:55.525Z,10.70
2018-11-07T20:03:23.610Z,10.74
2018-11-07T20:05:51.781Z,10.87
2018-11-07T20:08:19.936Z,10.90
2018-11-07T20:10:48.237Z,10.94
2018-11-07T20:13:16.379Z,10.96
2018-11-07T20:15:44.511Z,10.99
2018-11-07T20:18:12.743Z,10.91
2018-11-07T20:20:40.890Z,10.86
2018-11-07T20:23:09.062Z,10.86
2018-11-07T20:25:37.178Z,10.66
2018-11-07T20:28:05.696Z,10.69
2018-11-07T20:30:33.839Z,10.68
2018-11-07T20:33:02.006Z,10.67
2018-11-07T20:35:30.204Z,10.72
2018-11-07T20:37:58.276Z,10.85
2018-11-07T20:40:26.419Z,10.66
2018-11-07T20:42:54.560Z,10.76
2018-11-07T20:45:22.710Z,10.76
2018-11-07T20:47:50.817Z,10.73
2018-11-07T20:50:20.175Z,10.56
2018-11-07T20:52:48.581Z,10.44
2018-11-07T20:55:17.032Z,10.35
2018-11-07T20:57:45.142Z,10.26
2018-11-07T21:00:16.661Z,10.25
2018-11-07T21:02:45.258Z,10.18
2018-11-07T21:05:13.449Z,10.18
2018-11-07T21:07:42.030Z,10.08
2018-11-07T21:15:00.992Z,10.00
2018-11-07T21:17:29.098Z,9.93
2018-11-07T21:19:57.245Z,9.88
2018-11-07T21:22:25.385Z,9.89
2018-11-07T21:24:53.544Z,9.92
2018-11-07T21:27:21.690Z,9.89
2018-11-07T21:29:49.849Z,9.88
2018-11-07T21:32:17.992Z,9.90
2018-11-07T21:34:46.109Z,9.85
2018-11-07T21:37:14.185Z,9.93
2018-11-07T21:39:42.284Z,9.99
2018-11-07T21:42:10.463Z,9.95
2018-11-07T21:44:38.569Z,9.96
2018-11-07T21:47:06.775Z,10.01
2018-11-07T21:49:34.880Z,10.00
2018-11-07T21:52:02.965Z,9.92
2018-11-07T21:54:31.081Z,9.92
2018-11-07T21:57:05.847Z,9.88
2018-11-07T21:59:33.935Z,9.81
2018-11-07T22:02:02.159Z,9.73
2018-11-07T22:04:30.267Z,9.70
2018-11-07T22:06:58.391Z,9.63
2018-11-07T22:09:26.492Z,9.61
2018-11-07T22:11:54.624Z,9.44
2018-11-07T22:14:22.758Z,9.38
2018-11-07T22:16:50.886Z,9.38
2018-11-07T22:19:19.028Z,9.25
2018-11-07T22:21:47.134Z,9.18
2018-11-07T22:24:15.286Z,9.09
2018-11-07T22:26:43.324Z,8.99
2018-11-07T22:29:11.456Z,8.98
2018-11-07T22:31:39.597Z,8.92
2018-11-07T22:34:07.701Z,8.84
2018-11-07T22:36:35.823Z,8.73
2018-11-07T22:39:04.669Z,8.70
2018-11-07T22:41:32.839Z,8.60
2018-11-07T22:44:00.978Z,8.53
2018-11-07T22:46:29.074Z,8.53
2018-11-07T22:48:57.177Z,8.46
2018-11-07T22:51:25.292Z,8.44
2018-11-07T22:53:53.984Z,8.38
2018-11-07T22:56:22.104Z,8.38
2018-11-07T22:58:50.257Z,8.40
2018-11-07T23:01:23.411Z,8.33
2018-11-07T23:03:52.624Z,8.36
2018-11-07T23:06:20.732Z,8.22
2018-11-07T23:08:48.881Z,8.16
2018-11-07T23:11:16.979Z,8.13
2018-11-07T23:13:45.065Z,8.14
2018-11-07T23:16:13.167Z,8.12
2018-11-07T23:18:41.302Z,8.07
2018-11-07T23:21:09.423Z,8.06
2018-11-07T23:23:37.539Z,8.08
2018-11-07T23:26:05.709Z,7.95
2018-11-07T23:28:33.812Z,7.96
2018-11-07T23:31:01.921Z,7.97
2018-11-07T23:33:30.000Z,7.95
2018-11-07T23:35:58.128Z,7.93
2018-11-07T23:38:26.270Z,7.94
2018-11-07T23:40:54.380Z,7.93
2018-11-07T23:43:22.460Z,8.01
2018-11-07T23:45:50.583Z,8.05
2018-11-07T23:48:18.761Z,8.10
2018-11-07T23:50:46.872Z,8.14
2018-11-07T23:53:14.986Z,8.15
2018-11-07T23:55:44.125Z,8.14
2018-11-07T23:58:12.347Z,8.16
